Time;durP1;ratioP1;P1;durP2;ratioP2;P2;SDS_P1;SDS_P2;PMS_P1;PMS_P2;Temp;Humidity;BMP_temperature;BMP_pressure;BME280_temperature;BME280_humidity;BME280_pressure;Samples;Min_cycle;Max_cycle;Signal;HPM_P1;HPM_P2
2021/12/07 00:01:34;;;;;;;63.67;43.45;;;4.30;1.00;;;;;;5045967;28;20496;-76
2021/12/07 00:04:01;;;;;;;62.60;41.92;;;4.30;1.00;;;;;;5056719;28;20044;-76
2021/12/07 00:06:29;;;;;;;62.92;42.08;;;4.30;1.00;;;;;;5056368;28;20052;-76
2021/12/07 00:08:56;;;;;;;60.83;40.95;;;4.30;1.00;;;;;;5056122;28;20091;-76
2021/12/07 00:11:25;;;;;;;67.20;43.67;;;4.30;1.00;;;;;;5055838;28;20036;-76
2021/12/07 00:13:56;;;;;;;67.85;43.97;;;4.40;1.00;;;;;;5055990;28;20037;-75
2021/12/07 00:16:25;;;;;;;62.97;43.00;;;4.40;1.00;;;;;;5056028;28;20037;-76
2021/12/07 00:18:53;;;;;;;68.63;45.30;;;4.40;1.00;;;;;;5055777;28;20044;-75
2021/12/07 00:21:22;;;;;;;64.47;41.58;;;4.40;1.00;;;;;;5055629;28;20044;-74
2021/12/07 00:23:50;;;;;;;64.95;42.75;;;4.30;1.00;;;;;;5055543;28;20037;-75
2021/12/07 00:26:18;;;;;;;58.15;39.75;;;4.30;1.00;;;;;;5055703;28;20037;-74
2021/12/07 00:28:46;;;;;;;57.50;38.70;;;4.30;1.00;;;;;;5055188;28;20519;-77
2021/12/07 00:31:23;;;;;;;59.20;39.30;;;4.30;1.00;;;;;;5055120;28;20036;-76
2021/12/07 00:33:55;;;;;;;51.00;35.97;;;4.30;1.00;;;;;;5054463;28;20037;-76
2021/12/07 00:36:23;;;;;;;54.47;36.10;;;4.20;1.00;;;;;;5054659;28;20508;-77
2021/12/07 00:38:50;;;;;;;49.85;34.55;;;4.20;1.00;;;;;;5031659;28;20061;-75
2021/12/07 00:41:18;;;;;;;50.63;35.55;;;4.20;1.00;;;;;;5056308;28;20045;-75
2021/12/07 00:43:45;;;;;;;50.20;35.22;;;4.10;1.00;;;;;;5063735;28;20146;-76
2021/12/07 00:46:14;;;;;;;46.47;31.95;;;4.20;50.90;;;;;;5048425;28;20040;-76
2021/12/07 00:48:41;;;;;;;49.67;32.92;;;4.10;1.00;;;;;;5054782;28;20052;-75
2021/12/07 00:51:09;;;;;;;49.58;32.17;;;4.10;1.00;;;;;;5055353;28;20043;-75
2021/12/07 00:53:37;;;;;;;51.15;34.15;;;4.10;1.00;;;;;;5038172;28;20049;-76
2021/12/07 00:56:05;;;;;;;52.22;34.85;;;4.00;1.00;;;;;;5062843;28;20049;-76
2021/12/07 00:58:34;;;;;;;51.65;35.50;;;4.00;1.00;;;;;;5059794;28;20136;-76
2021/12/07 01:01:04;;;;;;;54.05;36.40;;;3.90;1.00;;;;;;5055532;28;20045;-76
2021/12/07 01:03:34;;;;;;;56.17;38.45;;;3.90;1.00;;;;;;5038452;28;20156;-75
2021/12/07 01:06:15;;;;;;;54.28;35.28;;;3.90;53.20;;;;;;5055965;28;20136;-76
2021/12/07 01:09:06;;;;;;;52.65;36.00;;;3.80;13.30;;;;;;5054357;28;20124;-75
2021/12/07 01:25:34;;;;;;;52.40;33.35;;;3.70;1.00;;;;;;5043683;28;20137;-76
2021/12/07 01:28:09;;;;;;;48.05;32.45;;;3.70;1.00;;;;;;5043682;28;20053;-75
2021/12/07 01:30:42;;;;;;;45.63;30.90;;;3.70;1.00;;;;;;5042618;28;20047;-76
2021/12/07 01:33:31;;;;;;;47.13;30.35;;;3.70;1.00;;;;;;5062834;28;20057;-76
2021/12/07 01:36:16;;;;;;;49.75;32.20;;;3.70;99.90;;;;;;5055767;28;20060;-77
2021/12/07 01:44:43;;;;;;;47.80;32.40;;;3.70;99.90;;;;;;5041451;28;20056;-75
2021/12/07 01:50:24;;;;;;;48.95;30.50;;;3.70;99.90;;;;;;5036782;28;19931;-76
2021/12/07 01:53:08;;;;;;;45.97;29.52;;;3.60;99.90;;;;;;5059226;28;20041;-76
2021/12/07 02:01:09;;;;;;;45.90;29.95;;;3.60;99.90;;;;;;5060479;28;20087;-75
2021/12/07 02:03:38;;;;;;;43.45;28.92;;;3.70;99.90;;;;;;5046163;28;20053;-76
2021/12/07 02:06:09;;;;;;;45.35;30.75;;;3.60;99.90;;;;;;5046164;28;20069;-76
2021/12/07 02:08:39;;;;;;;51.13;32.55;;;3.60;99.90;;;;;;5046288;28;20052;-75
2021/12/07 02:11:07;;;;;;;47.72;33.17;;;3.70;99.90;;;;;;5047174;28;20043;-75
2021/12/07 02:16:32;;;;;;;49.08;32.17;;;3.60;1.00;;;;;;5032293;28;20132;-75
2021/12/07 02:19:01;;;;;;;52.92;33.13;;;3.60;1.00;;;;;;4993065;28;20465;-74
2021/12/07 02:21:30;;;;;;;49.90;32.83;;;3.60;1.00;;;;;;5005630;28;20050;-76
2021/12/07 02:24:05;;;;;;;;;;;3.60;1.00;;;;;;4992317;28;20054;-75
2021/12/07 02:26:33;;;;;;;48.10;30.60;;;3.60;1.00;;;;;;5017921;28;19972;-77
2021/12/07 02:29:01;;;;;;;42.30;28.40;;;3.60;1.00;;;;;;5016918;28;20060;-76
2021/12/07 02:31:29;;;;;;;42.28;28.30;;;3.60;1.00;;;;;;5014138;28;20060;-75
2021/12/07 02:33:58;;;;;;;41.30;28.50;;;3.50;1.00;;;;;;5013173;28;20038;-75
2021/12/07 02:36:26;;;;;;;38.45;28.02;;;3.50;1.00;;;;;;5019975;28;20049;-75
2021/12/07 02:38:57;;;;;;;40.72;26.73;;;3.60;1.00;;;;;;5003692;28;20050;-76
2021/12/07 02:41:24;;;;;;;38.45;29.20;;;3.50;1.00;;;;;;5002962;28;20132;-76
2021/12/07 02:43:52;;;;;;;38.42;25.48;;;3.60;1.00;;;;;;5015090;28;20061;-76
2021/12/07 02:46:19;;;;;;;39.75;27.48;;;3.60;1.00;;;;;;4997756;28;20042;-76
2021/12/07 02:48:50;;;;;;;36.00;26.38;;;3.60;1.00;;;;;;5002473;28;20521;-75
2021/12/07 02:51:18;;;;;;;37.50;26.23;;;3.60;1.00;;;;;;5047524;28;20045;-75
2021/12/07 02:53:47;;;;;;;36.58;25.90;;;3.60;1.00;;;;;;5058807;28;20116;-75
2021/12/07 02:56:16;;;;;;;36.33;26.23;;;3.60;1.00;;;;;;5074713;28;20041;-75
2021/12/07 02:58:44;;;;;;;34.92;23.80;;;3.60;1.00;;;;;;5076076;28;20029;-77
2021/12/07 03:01:21;;;;;;;35.42;24.33;;;3.50;99.90;;;;;;5049681;28;20052;-75
2021/12/07 03:03:59;;;;;;;34.80;22.95;;;3.50;99.90;;;;;;5075870;28;20049;-75
2021/12/07 03:06:36;;;;;;;35.60;25.15;;;3.50;99.90;;;;;;5059941;28;20048;-76
2021/12/07 03:25:59;;;;;;;41.58;29.40;;;3.40;1.00;;;;;;5056353;28;20039;-74
2021/12/07 03:28:32;;;;;;;45.10;31.67;;;3.40;1.00;;;;;;5064905;28;20037;-77
2021/12/07 03:31:01;;;;;;;41.33;30.60;;;3.40;82.00;;;;;;5070945;28;20041;-75
2021/12/07 03:33:28;;;;;;;47.83;33.10;;;3.40;99.90;;;;;;5047187;28;20040;-75
2021/12/07 03:35:56;;;;;;;43.95;31.40;;;3.40;99.90;;;;;;5062342;28;20559;-75
2021/12/07 03:38:24;;;;;;;49.20;31.15;;;3.50;1.00;;;;;;5053529;28;20068;-77
2021/12/07 03:40:52;;;;;;;42.22;30.90;;;3.40;1.00;;;;;;5057957;28;20047;-79
2021/12/07 03:43:20;;;;;;;41.47;29.02;;;3.40;1.00;;;;;;5054632;28;20049;-77
2021/12/07 03:45:49;;;;;;;44.15;30.65;;;3.40;31.30;;;;;;5036615;28;20045;-77
2021/12/07 03:48:18;;;;;;;43.10;30.75;;;3.40;98.50;;;;;;5032936;28;20045;-77
2021/12/07 03:50:45;;;;;;;41.92;29.92;;;3.50;1.00;;;;;;5030418;28;20042;-79
2021/12/07 03:53:14;;;;;;;44.13;31.02;;;3.50;1.00;;;;;;5032116;28;20072;-78
2021/12/07 03:55:42;;;;;;;51.20;34.67;;;3.40;1.00;;;;;;5033317;28;20045;-77
2021/12/07 03:58:10;;;;;;;55.30;34.83;;;3.40;1.00;;;;;;5033135;28;20216;-78
2021/12/07 04:00:43;;;;;;;50.83;34.55;;;3.40;1.00;;;;;;5049823;28;20038;-77
2021/12/07 04:03:14;;;;;;;52.45;35.20;;;3.40;1.00;;;;;;5033696;28;20041;-77
2021/12/07 04:05:48;;;;;;;52.13;33.83;;;3.40;1.00;;;;;;5033445;28;20073;-76
2021/12/07 04:08:21;;;;;;;45.92;30.80;;;3.40;1.00;;;;;;5032956;28;20045;-78
2021/12/07 04:10:50;;;;;;;46.78;30.95;;;3.30;1.00;;;;;;5032217;28;20040;-77
2021/12/07 04:13:18;;;;;;;42.83;30.83;;;3.40;1.00;;;;;;5033119;28;20052;-79
2021/12/07 04:15:45;;;;;;;47.65;31.90;;;3.50;75.20;;;;;;5051812;28;20048;-80
2021/12/07 04:18:14;;;;;;;39.15;28.35;;;3.40;1.00;;;;;;5039773;28;20501;-79
2021/12/07 04:20:42;;;;;;;41.88;29.40;;;3.50;1.00;;;;;;5034729;28;20053;-78
2021/12/07 04:23:10;;;;;;;47.40;31.48;;;3.40;1.00;;;;;;5031869;28;20408;-78
2021/12/07 04:25:38;;;;;;;44.22;30.05;;;3.40;1.00;;;;;;5032724;28;20065;-78
2021/12/07 04:28:07;;;;;;;45.13;32.30;;;3.40;1.00;;;;;;5033897;28;20088;-78
2021/12/07 04:30:36;;;;;;;45.50;30.95;;;3.40;1.00;;;;;;5036933;28;20033;-78
2021/12/07 04:33:05;;;;;;;44.85;29.95;;;3.40;1.00;;;;;;5034378;28;20045;-81
2021/12/07 04:35:37;;;;;;;44.10;30.65;;;3.40;1.00;;;;;;5037906;28;20041;-80
2021/12/07 04:38:04;;;;;;;44.30;31.27;;;3.40;1.00;;;;;;5033446;28;20050;-79
2021/12/07 04:40:33;;;;;;;47.00;32.10;;;3.40;1.00;;;;;;5034060;28;20061;-77
2021/12/07 04:43:02;;;;;;;44.70;32.03;;;3.40;1.00;;;;;;5030853;28;20397;-79
2021/12/07 04:45:37;;;;;;;51.85;35.55;;;3.30;1.00;;;;;;5052516;28;20064;-78
2021/12/07 04:48:30;;;;;;;51.63;36.60;;;3.30;1.00;;;;;;5047704;28;20389;-77
2021/12/07 04:59:16;;;;;;;54.58;35.17;;;3.30;99.90;;;;;;5052681;28;20098;-78
2021/12/07 05:01:45;;;;;;;44.42;32.53;;;3.30;99.90;;;;;;5036182;28;20476;-79
2021/12/07 05:04:16;;;;;;;51.17;34.45;;;3.30;99.90;;;;;;5052350;28;20056;-77
2021/12/07 05:06:49;;;;;;;50.40;33.63;;;3.30;99.90;;;;;;5052210;28;20049;-78
2021/12/07 05:12:27;;;;;;;52.35;36.50;;;3.30;1.00;;;;;;5028912;28;20052;-76
2021/12/07 05:15:01;;;;;;;50.08;33.58;;;3.30;1.00;;;;;;5048027;28;20108;-77
2021/12/07 05:17:55;;;;;;;51.10;33.03;;;3.30;1.00;;;;;;5051606;28;20045;-77
2021/12/07 05:34:44;;;;;;;41.63;28.33;;;3.20;99.90;;;;;;5038397;28;20049;-79
2021/12/07 05:39:59;;;;;;;39.47;27.02;;;3.20;1.00;;;;;;5032010;28;20040;-78
2021/12/07 05:42:26;;;;;;;36.83;25.27;;;3.30;99.90;;;;;;5043689;28;20110;-78
2021/12/07 05:44:55;;;;;;;35.42;25.08;;;3.30;99.90;;;;;;5039659;28;20413;-77
2021/12/07 05:47:23;;;;;;;41.45;26.38;;;3.20;99.90;;;;;;5053687;28;20041;-77
2021/12/07 05:49:51;;;;;;;35.40;24.58;;;3.20;99.90;;;;;;5052967;28;20049;-77
2021/12/07 05:52:18;;;;;;;35.30;23.67;;;3.20;93.90;;;;;;5053887;28;20110;-78
2021/12/07 05:54:46;;;;;;;36.85;25.52;;;3.20;1.00;;;;;;5035522;28;20040;-78
2021/12/07 05:57:15;;;;;;;37.38;26.65;;;3.20;1.00;;;;;;5035139;28;20064;-79
2021/12/07 05:59:43;;;;;;;41.05;28.10;;;3.30;1.00;;;;;;5057562;28;20032;-79
2021/12/07 06:02:10;;;;;;;41.80;28.02;;;3.30;1.00;;;;;;5056052;28;20045;-79
2021/12/07 06:04:38;;;;;;;41.33;27.50;;;3.30;1.00;;;;;;5057077;28;20496;-77
2021/12/07 06:07:05;;;;;;;39.47;28.13;;;3.30;1.00;;;;;;5058875;28;20096;-78
2021/12/07 06:09:33;;;;;;;40.10;28.40;;;3.30;1.00;;;;;;5039028;28;20049;-79
2021/12/07 06:12:01;;;;;;;42.47;27.38;;;3.40;1.00;;;;;;5040698;28;20055;-79
2021/12/07 06:14:34;;;;;;;39.05;27.75;;;3.40;1.00;;;;;;5056200;28;20068;-79
2021/12/07 06:17:01;;;;;;;42.08;28.70;;;3.40;1.00;;;;;;5038164;28;20049;-79
2021/12/07 06:19:29;;;;;;;41.60;29.08;;;3.30;1.00;;;;;;5062619;28;20041;-80
2021/12/07 06:21:56;;;;;;;43.80;30.05;;;3.30;1.00;;;;;;5040623;28;20045;-78
2021/12/07 06:24:24;;;;;;;43.00;30.55;;;3.20;1.00;;;;;;5065907;28;20067;-78
2021/12/07 06:26:51;;;;;;;49.72;32.58;;;3.20;1.00;;;;;;5070271;28;20071;-76
2021/12/07 06:29:19;;;;;;;49.47;34.33;;;3.20;1.00;;;;;;5075631;28;20079;-76
2021/12/07 06:31:48;;;;;;;45.95;32.63;;;3.20;99.90;;;;;;5059890;28;20113;-77
2021/12/07 06:34:16;;;;;;;49.00;33.42;;;3.20;99.90;;;;;;5058506;28;20048;-79
2021/12/07 06:36:43;;;;;;;48.83;33.00;;;3.10;1.00;;;;;;5061319;28;20039;-79
2021/12/07 06:39:11;;;;;;;50.92;35.20;;;3.10;1.00;;;;;;5060862;28;20043;-77
2021/12/07 06:41:38;;;;;;;50.42;33.40;;;3.00;1.00;;;;;;5065553;28;20104;-81
2021/12/07 06:44:06;;;;;;;48.42;33.80;;;3.00;99.90;;;;;;5065421;28;20053;-81
2021/12/07 06:46:34;;;;;;;51.22;35.70;;;3.00;99.90;;;;;;5045846;28;20053;-81
2021/12/07 06:49:03;;;;;;;53.15;36.08;;;3.00;1.00;;;;;;5058558;28;20041;-81
2021/12/07 06:51:30;;;;;;;53.83;36.20;;;3.10;99.90;;;;;;5058847;28;20041;-81
2021/12/07 06:53:58;;;;;;;54.70;38.13;;;3.00;99.90;;;;;;5059592;28;20052;-81
2021/12/07 06:56:28;;;;;;;52.35;36.22;;;3.10;97.50;;;;;;5041793;28;20205;-80
2021/12/07 06:58:55;;;;;;;61.63;40.65;;;3.10;1.00;;;;;;5057122;28;20508;-81
2021/12/07 07:01:23;;;;;;;61.58;39.28;;;3.20;99.90;;;;;;5039263;28;20041;-81
2021/12/07 07:03:50;;;;;;;59.17;37.47;;;3.20;99.90;;;;;;5058448;28;20129;-79
2021/12/07 07:06:20;;;;;;;56.08;38.67;;;3.20;1.00;;;;;;5059424;28;20086;-80
2021/12/07 07:08:50;;;;;;;58.20;37.60;;;3.20;1.00;;;;;;5060680;28;20052;-80
2021/12/07 07:11:18;;;;;;;58.65;39.70;;;3.20;1.00;;;;;;5061282;28;20097;-79
2021/12/07 07:13:45;;;;;;;64.57;43.42;;;3.20;1.00;;;;;;5066300;28;20067;-80
2021/12/07 07:16:14;;;;;;;67.43;42.67;;;3.30;1.00;;;;;;5064843;28;20045;-81
2021/12/07 07:18:41;;;;;;;69.93;44.90;;;3.40;99.90;;;;;;5070393;28;20045;-79
2021/12/07 07:21:10;;;;;;;72.22;46.45;;;3.40;99.90;;;;;;5062345;28;20468;-79
2021/12/07 07:23:39;;;;;;;75.05;46.05;;;3.40;1.00;;;;;;5059686;28;20047;-80
2021/12/07 07:26:09;;;;;;;73.50;47.55;;;3.50;99.90;;;;;;5065403;28;20068;-80
2021/12/07 07:28:36;;;;;;;74.80;48.70;;;3.50;1.00;;;;;;5061032;28;20056;-79
2021/12/07 07:31:07;;;;;;;75.00;47.13;;;3.60;1.00;;;;;;5040621;28;20049;-78
2021/12/07 07:33:37;;;;;;;74.00;47.15;;;3.60;99.90;;;;;;5040191;28;20056;-80
2021/12/07 07:36:05;;;;;;;71.20;47.40;;;3.50;1.00;;;;;;5058305;28;20048;-78
2021/12/07 07:38:33;;;;;;;76.88;49.13;;;3.50;1.10;;;;;;5057785;28;20428;-78
2021/12/07 07:41:02;;;;;;;71.80;46.42;;;3.50;99.90;;;;;;5039145;28;20127;-78
2021/12/07 07:43:30;;;;;;;62.97;42.92;;;3.50;99.90;;;;;;5056922;28;20156;-78
2021/12/07 07:46:12;;;;;;;60.33;40.80;;;3.50;99.90;;;;;;5038262;28;20056;-81
2021/12/07 07:48:39;;;;;;;59.58;40.28;;;3.60;1.00;;;;;;5038433;28;20049;-81
2021/12/07 07:51:07;;;;;;;55.58;37.30;;;3.50;1.00;;;;;;5039058;28;20379;-81
2021/12/07 07:53:34;;;;;;;62.50;40.80;;;3.50;99.90;;;;;;5028275;28;20111;-81
2021/12/07 07:56:05;;;;;;;60.35;42.70;;;3.40;99.90;;;;;;5020585;28;20582;-78
2021/12/07 07:58:32;;;;;;;66.18;43.72;;;3.50;99.90;;;;;;5036171;28;20056;-79
2021/12/07 08:01:02;;;;;;;65.88;42.70;;;3.60;1.00;;;;;;5043238;28;20032;-80
2021/12/07 08:03:37;;;;;;;65.85;42.53;;;3.70;1.00;;;;;;5048917;28;20052;-81
2021/12/07 08:06:05;;;;;;;63.33;39.92;;;3.70;1.00;;;;;;5039254;28;20049;-81
2021/12/07 08:08:33;;;;;;;55.80;38.53;;;3.70;99.90;;;;;;5040108;28;20044;-80
2021/12/07 08:11:01;;;;;;;57.90;39.20;;;3.70;99.40;;;;;;5063072;28;20041;-80
2021/12/07 08:13:31;;;;;;;59.85;39.75;;;3.70;9.10;;;;;;5066835;28;20557;-80
2021/12/07 08:16:16;;;;;;;58.60;38.35;;;3.70;1.00;;;;;;5052623;28;20053;-82
2021/12/07 08:18:44;;;;;;;61.70;40.35;;;3.80;1.00;;;;;;5074903;28;20112;-83
2021/12/07 08:21:12;;;;;;;58.95;38.88;;;3.80;1.00;;;;;;5048520;28;20048;-82
2021/12/07 08:23:41;;;;;;;53.38;35.60;;;3.80;1.00;;;;;;5067625;28;20076;-81
2021/12/07 08:26:11;;;;;;;52.45;34.13;;;3.90;99.90;;;;;;5069029;28;20045;-80
2021/12/07 08:28:40;;;;;;;56.60;35.88;;;3.90;99.90;;;;;;5067601;28;20042;-83
2021/12/07 08:31:08;;;;;;;61.25;39.88;;;3.80;99.90;;;;;;5065168;28;20098;-79
2021/12/07 08:33:36;;;;;;;57.60;37.83;;;3.70;1.00;;;;;;5058285;28;20080;-80
2021/12/07 08:36:05;;;;;;;52.50;35.50;;;3.80;99.90;;;;;;5063448;28;20041;-80
2021/12/07 08:38:33;;;;;;;65.88;41.72;;;3.80;99.90;;;;;;5039248;28;20591;-81
2021/12/07 08:41:03;;;;;;;63.88;40.92;;;3.80;1.00;;;;;;5059426;28;20102;-81
2021/12/07 08:43:33;;;;;;;58.83;36.65;;;3.90;1.00;;;;;;5056414;28;20412;-81
2021/12/07 08:46:05;;;;;;;53.15;34.92;;;3.90;28.70;;;;;;5048916;28;20040;-81
2021/12/07 08:48:34;;;;;;;51.05;33.97;;;4.10;1.00;;;;;;5038312;28;20048;-81
2021/12/07 08:51:02;;;;;;;55.30;35.50;;;4.10;1.00;;;;;;5055197;28;20119;-79
2021/12/07 08:53:30;;;;;;;51.35;34.53;;;4.00;1.00;;;;;;5024428;28;20051;-82
2021/12/07 09:01:28;;;;;;;65.13;41.00;;;4.10;1.00;;;;;;5056215;28;20405;-81
2021/12/07 09:03:57;;;;;;;54.40;34.22;;;4.30;99.90;;;;;;5045453;28;20084;-82
2021/12/07 09:06:26;;;;;;;57.60;37.67;;;4.20;98.30;;;;;;5060020;28;20077;-81
2021/12/07 09:08:54;;;;;;;48.85;31.92;;;4.30;1.00;;;;;;5057662;28;20060;-82
2021/12/07 09:11:22;;;;;;;59.63;38.50;;;4.40;1.00;;;;;;5041981;28;20049;-83
2021/12/07 09:13:49;;;;;;;53.72;37.08;;;4.50;99.90;;;;;;5062001;28;20041;-81
2021/12/07 09:16:19;;;;;;;51.10;35.00;;;4.70;1.00;;;;;;5061518;28;20409;-81
2021/12/07 09:18:48;;;;;;;48.70;33.83;;;4.80;1.00;;;;;;5059627;28;20041;-80
2021/12/07 09:21:17;;;;;;;46.33;30.45;;;4.90;99.90;;;;;;5058855;28;20037;-81
2021/12/07 09:23:44;;;;;;;47.38;30.63;;;4.90;1.00;;;;;;5057328;28;20045;-80
2021/12/07 09:26:12;;;;;;;45.97;30.80;;;4.90;1.00;;;;;;5044009;28;20041;-79
2021/12/07 09:28:41;;;;;;;41.22;29.27;;;4.90;1.00;;;;;;5044080;28;20056;-82
2021/12/07 09:31:10;;;;;;;46.65;30.25;;;5.00;1.00;;;;;;5057459;28;20110;-80
2021/12/07 09:33:40;;;;;;;54.25;31.63;;;5.10;99.90;;;;;;5039503;28;20458;-82
2021/12/07 09:36:11;;;;;;;38.85;28.05;;;5.30;99.90;;;;;;5059826;28;20492;-81
2021/12/07 09:38:40;;;;;;;40.85;28.35;;;5.50;99.90;;;;;;5059456;28;20075;-80
2021/12/07 09:41:10;;;;;;;44.05;30.70;;;5.50;1.00;;;;;;5059298;28;20041;-78
2021/12/07 09:43:38;;;;;;;44.00;29.13;;;5.60;1.00;;;;;;5058937;28;20056;-79
2021/12/07 09:46:08;;;;;;;41.80;28.75;;;5.60;1.00;;;;;;5057775;28;20128;-80
2021/12/07 09:48:40;;;;;;;45.90;30.85;;;5.80;1.00;;;;;;5032620;28;20050;-76
2021/12/07 09:51:10;;;;;;;38.25;26.92;;;5.90;1.00;;;;;;5038598;28;20033;-78
2021/12/07 09:53:38;;;;;;;40.03;27.83;;;6.00;1.00;;;;;;5039575;28;20083;-78
2021/12/07 09:56:09;;;;;;;38.65;26.17;;;6.00;1.00;;;;;;5044663;28;20037;-77
2021/12/07 09:58:36;;;;;;;37.92;26.88;;;6.20;1.00;;;;;;5059178;28;20096;-78
2021/12/07 10:01:05;;;;;;;37.13;26.15;;;6.30;99.90;;;;;;5052787;28;20072;-78
2021/12/07 10:03:33;;;;;;;33.70;23.38;;;6.50;99.90;;;;;;5044388;28;20071;-78
2021/12/07 10:06:01;;;;;;;37.63;25.42;;;6.40;99.90;;;;;;5044914;28;20041;-79
2021/12/07 10:08:30;;;;;;;41.63;24.58;;;6.50;99.90;;;;;;5057099;28;20061;-79
2021/12/07 10:11:02;;;;;;;34.42;23.85;;;6.40;99.90;;;;;;5065039;28;20094;-80
2021/12/07 10:13:31;;;;;;;37.58;25.77;;;6.40;95.90;;;;;;5046810;28;20059;-78
2021/12/07 10:16:02;;;;;;;46.00;29.83;;;6.30;99.90;;;;;;5064711;28;20071;-79
2021/12/07 10:18:31;;;;;;;36.33;25.83;;;6.10;99.90;;;;;;5049461;28;20149;-80
2021/12/07 10:21:04;;;;;;;38.75;26.65;;;6.00;99.90;;;;;;5067531;28;20068;-81
2021/12/07 10:23:36;;;;;;;39.55;27.63;;;5.80;99.90;;;;;;5071883;28;20064;-81
2021/12/07 10:26:09;;;;;;;37.15;24.33;;;5.90;99.90;;;;;;5064027;28;20045;-81
2021/12/07 10:28:39;;;;;;;37.45;24.92;;;6.00;98.00;;;;;;5060439;28;20049;-78
2021/12/07 10:31:28;;;;;;;35.90;24.50;;;5.90;96.50;;;;;;5040694;28;20057;-81
2021/12/07 10:34:00;;;;;;;36.60;25.58;;;6.00;99.90;;;;;;5040523;28;20512;-77
2021/12/07 10:36:30;;;;;;;36.92;25.88;;;6.00;99.90;;;;;;5039871;28;20049;-79
2021/12/07 10:39:08;;;;;;;39.60;26.95;;;5.90;9.30;;;;;;5058407;28;20052;-78
2021/12/07 10:41:40;;;;;;;38.67;26.42;;;5.90;12.90;;;;;;5057251;28;20065;-77
2021/12/07 10:44:10;;;;;;;45.17;27.77;;;5.90;1.00;;;;;;5056939;28;20061;-79
2021/12/07 10:46:52;;;;;;;40.72;27.73;;;6.00;1.00;;;;;;5056464;28;20048;-79
2021/12/07 10:49:43;;;;;;;47.47;30.70;;;6.00;1.00;;;;;;5058309;28;20412;-78
2021/12/07 10:52:16;;;;;;;35.25;24.80;;;6.00;1.00;;;;;;5039453;28;20503;-78
2021/12/07 10:54:49;;;;;;;32.75;23.48;;;6.00;1.00;;;;;;5058288;28;20040;-77
2021/12/07 10:57:20;;;;;;;33.67;23.95;;;5.90;1.00;;;;;;5057348;28;20515;-77
2021/12/07 10:59:59;;;;;;;33.08;23.85;;;5.80;1.00;;;;;;5057025;28;20051;-78
2021/12/07 11:02:30;;;;;;;36.05;24.58;;;5.70;1.00;;;;;;5058750;28;20460;-77
2021/12/07 11:04:58;;;;;;;33.47;23.50;;;5.60;1.00;;;;;;5040158;28;20060;-77
2021/12/07 11:07:27;;;;;;;33.35;22.60;;;5.50;1.00;;;;;;5058007;28;20037;-80
2021/12/07 11:10:07;;;;;;;33.50;23.10;;;5.40;1.00;;;;;;5057768;28;20480;-78
2021/12/07 11:12:45;;;;;;;36.88;25.77;;;5.50;21.90;;;;;;5056612;28;20041;-77
2021/12/07 11:15:17;;;;;;;38.75;26.45;;;5.40;11.50;;;;;;5038937;28;20493;-78
2021/12/07 11:17:45;;;;;;;36.42;25.65;;;5.40;1.00;;;;;;5057768;28;20044;-78
2021/12/07 11:20:14;;;;;;;38.67;25.85;;;5.30;1.00;;;;;;5057508;28;20041;-78
2021/12/07 11:22:45;;;;;;;34.35;23.63;;;5.20;5.60;;;;;;5038417;28;20044;-77
2021/12/07 11:25:53;;;;;;;40.80;25.35;;;5.30;1.00;;;;;;5054855;28;20509;-78
2021/12/07 11:31:23;;;;;;;34.42;22.40;;;5.60;1.00;;;;;;5039206;28;20178;-81
2021/12/07 11:33:54;;;;;;;37.50;23.33;;;5.60;1.00;;;;;;5056466;28;20033;-77
2021/12/07 11:36:26;;;;;;;30.48;21.92;;;5.50;1.00;;;;;;5057340;28;20144;-78
2021/12/07 11:38:55;;;;;;;34.05;22.80;;;5.40;1.00;;;;;;5055990;28;20504;-78
2021/12/07 11:41:31;;;;;;;34.42;23.90;;;5.30;1.00;;;;;;5039767;28;20453;-80
2021/12/07 11:44:03;;;;;;;39.13;25.25;;;5.30;1.00;;;;;;5054488;28;20492;-78
2021/12/07 11:46:33;;;;;;;33.20;23.20;;;5.40;1.00;;;;;;5048842;28;20506;-81
2021/12/07 11:49:14;;;;;;;34.75;24.25;;;5.50;1.00;;;;;;5049928;28;20074;-76
2021/12/07 11:51:43;;;;;;;41.25;26.75;;;5.40;1.00;;;;;;5055924;28;20493;-77
2021/12/07 11:54:11;;;;;;;34.20;24.58;;;5.60;1.00;;;;;;5037651;28;20104;-77
2021/12/07 11:56:41;;;;;;;32.28;22.38;;;5.40;1.00;;;;;;5056054;28;20492;-78
2021/12/07 11:59:09;;;;;;;34.80;23.60;;;5.50;1.00;;;;;;5056130;28;20071;-79
2021/12/07 12:01:38;;;;;;;39.10;26.92;;;5.60;1.00;;;;;;5055217;28;20409;-78
2021/12/07 12:04:06;;;;;;;42.70;28.17;;;5.60;1.00;;;;;;5020473;28;20069;-77
2021/12/07 12:06:35;;;;;;;37.28;25.73;;;5.50;1.00;;;;;;5040281;28;20037;-78
2021/12/07 12:09:04;;;;;;;35.53;24.63;;;5.50;1.00;;;;;;5038466;28;20045;-76
2021/12/07 12:11:41;;;;;;;32.20;21.98;;;5.70;1.00;;;;;;5037997;28;20040;-79
2021/12/07 12:14:30;;;;;;;33.65;23.92;;;5.80;1.00;;;;;;5037829;28;20037;-80
2021/12/07 12:17:07;;;;;;;33.40;24.50;;;5.80;1.00;;;;;;5055088;28;20144;-77
2021/12/07 12:19:47;;;;;;;38.38;25.13;;;5.80;1.00;;;;;;5041043;28;20059;-79
2021/12/07 12:22:26;;;;;;;38.95;25.75;;;5.80;1.00;;;;;;5044497;28;20129;-79
2021/12/07 12:24:56;;;;;;;36.17;25.42;;;5.90;1.00;;;;;;5057032;28;20079;-78
2021/12/07 12:27:27;;;;;;;34.90;24.45;;;5.80;1.00;;;;;;5055849;28;20049;-79
2021/12/07 12:29:58;;;;;;;35.67;24.95;;;5.80;1.00;;;;;;5056715;28;20041;-77
2021/12/07 12:32:30;;;;;;;32.53;22.70;;;5.70;1.00;;;;;;5056541;28;20044;-79
2021/12/07 12:35:00;;;;;;;37.33;25.00;;;5.60;1.00;;;;;;5038386;28;20533;-79
2021/12/07 12:37:31;;;;;;;35.92;25.33;;;5.50;1.00;;;;;;5039181;28;20212;-79
2021/12/07 12:40:01;;;;;;;41.92;26.80;;;5.50;1.00;;;;;;5038419;28;20524;-78
2021/12/07 12:42:32;;;;;;;34.40;24.17;;;5.50;1.00;;;;;;5057531;28;20052;-77
2021/12/07 12:45:17;;;;;;;36.47;24.83;;;5.40;1.00;;;;;;5019537;28;20053;-79
2021/12/07 12:47:48;;;;;;;42.65;27.23;;;5.40;1.00;;;;;;5017874;28;20059;-80
2021/12/07 12:50:18;;;;;;;34.80;23.13;;;5.40;1.00;;;;;;5037338;28;20107;-77
2021/12/07 12:52:49;;;;;;;34.45;24.13;;;5.40;1.00;;;;;;5037079;28;20135;-77
2021/12/07 12:55:42;;;;;;;33.53;24.10;;;5.50;1.00;;;;;;5051315;28;20116;-78
2021/12/07 12:58:13;;;;;;;35.63;23.55;;;5.60;1.00;;;;;;5052437;28;20064;-78
2021/12/07 13:01:14;;;;;;;33.00;22.98;;;5.60;1.00;;;;;;5039804;28;20060;-79
2021/12/07 13:03:52;;;;;;;37.58;25.15;;;5.70;1.00;;;;;;5040067;28;20117;-80
2021/12/07 13:06:22;;;;;;;38.40;26.40;;;5.70;1.00;;;;;;5056160;28;20069;-78
2021/12/07 13:09:01;;;;;;;36.97;25.45;;;5.70;1.00;;;;;;5045338;28;20041;-78
2021/12/07 13:11:38;;;;;;;36.15;25.50;;;5.80;1.00;;;;;;5044679;28;20048;-80
2021/12/07 13:14:07;;;;;;;38.60;25.23;;;5.90;1.00;;;;;;5064309;28;20119;-81
2021/12/07 13:16:39;;;;;;;43.08;26.73;;;6.00;1.00;;;;;;5041834;28;20148;-80
2021/12/07 13:19:12;;;;;;;40.08;27.23;;;6.00;1.00;;;;;;5059003;28;20079;-81
2021/12/07 13:21:56;;;;;;;59.78;34.08;;;6.00;1.00;;;;;;5054997;28;20032;-84
2021/12/07 13:24:36;;;;;;;44.55;27.90;;;5.90;1.00;;;;;;5056974;28;20049;-80
2021/12/07 13:27:10;;;;;;;62.22;34.53;;;6.00;1.00;;;;;;5060731;28;20057;-84
2021/12/07 13:29:39;;;;;;;48.17;30.08;;;6.00;1.00;;;;;;5058860;28;20084;-81
2021/12/07 13:32:17;;;;;;;52.35;30.83;;;6.00;1.00;;;;;;5042077;28;20452;-85
2021/12/07 13:34:44;;;;;;;52.70;30.23;;;6.00;1.00;;;;;;5058219;28;20052;-78
2021/12/07 13:37:14;;;;;;;42.75;28.42;;;5.90;1.00;;;;;;5057325;28;20159;-80
2021/12/07 13:39:45;;;;;;;40.75;28.13;;;6.00;1.00;;;;;;5056669;28;20041;-79
2021/12/07 13:42:31;;;;;;;40.97;28.05;;;6.00;1.00;;;;;;5040521;28;20060;-80
2021/12/07 13:45:05;;;;;;;;;;;5.90;1.00;;;;;;5040630;28;20057;-80
2021/12/07 13:47:41;;;;;;;38.42;26.40;;;5.90;1.00;;;;;;5054926;28;19925;-81
2021/12/07 13:50:12;;;;;;;36.88;25.00;;;5.70;1.00;;;;;;5040590;28;20049;-78
2021/12/07 13:52:42;;;;;;;38.08;24.25;;;5.70;1.00;;;;;;5054981;28;20043;-79
2021/12/07 13:55:12;;;;;;;38.47;25.77;;;5.60;1.00;;;;;;5057947;28;20044;-77
2021/12/07 13:57:42;;;;;;;46.42;29.70;;;5.50;1.00;;;;;;5039709;28;20112;-78
2021/12/07 14:00:12;;;;;;;36.63;24.58;;;5.50;1.00;;;;;;5057994;28;20048;-77
2021/12/07 14:02:55;;;;;;;38.85;27.02;;;5.50;1.00;;;;;;5058486;28;20033;-77
2021/12/07 14:05:26;;;;;;;40.22;26.52;;;5.50;1.00;;;;;;5058164;28;20041;-79
2021/12/07 14:07:58;;;;;;;38.92;27.00;;;5.50;1.00;;;;;;5039439;28;20049;-78
2021/12/07 14:10:28;;;;;;;36.28;25.48;;;5.40;1.00;;;;;;5057636;28;20476;-76
2021/12/07 14:12:57;;;;;;;35.80;25.08;;;5.50;1.00;;;;;;5057684;28;20408;-77
2021/12/07 14:15:27;;;;;;;39.90;27.98;;;5.40;1.00;;;;;;5042208;28;20055;-79
2021/12/07 14:17:57;;;;;;;40.53;26.35;;;5.40;1.00;;;;;;5052417;28;20053;-77
2021/12/07 14:20:34;;;;;;;35.25;23.83;;;5.40;1.00;;;;;;5041861;28;20151;-76
2021/12/07 14:23:18;;;;;;;36.13;25.10;;;5.40;1.00;;;;;;5058353;28;20037;-77
2021/12/07 14:25:48;;;;;;;37.13;24.42;;;5.30;1.00;;;;;;5057181;28;20107;-76
2021/12/07 14:28:28;;;;;;;36.45;25.70;;;5.30;1.00;;;;;;5040863;28;20444;-80
2021/12/07 14:30:59;;;;;;;38.83;27.50;;;5.30;1.00;;;;;;5057901;28;20071;-80